sensor_id;sensor_type;location;lat;lon;timestamp;P1;durP1;ratioP1;P2;durP2;ratioP2
85054;SDS011;75391;48.300;16.352;2024-03-06T00:01:59;21.23;;;8.90;;
85054;SDS011;75391;48.300;16.352;2024-03-06T00:04:24;20.15;;;8.73;;
85054;SDS011;75391;48.300;16.352;2024-03-06T00:06:50;19.25;;;8.98;;
85054;SDS011;75391;48.300;16.352;2024-03-06T00:09:15;21.30;;;8.85;;
85054;SDS011;75391;48.300;16.352;2024-03-06T00:11:41;20.55;;;8.98;;
85054;SDS011;75391;48.300;16.352;2024-03-06T00:14:06;22.48;;;9.98;;
85054;SDS011;75391;48.300;16.352;2024-03-06T00:16:32;21.15;;;9.32;;
85054;SDS011;75391;48.300;16.352;2024-03-06T00:18:58;22.48;;;9.93;;
85054;SDS011;75391;48.300;16.352;2024-03-06T00:21:23;24.13;;;10.82;;
85054;SDS011;75391;48.300;16.352;2024-03-06T00:23:48;25.73;;;10.80;;
85054;SDS011;75391;48.300;16.352;2024-03-06T00:26:14;23.35;;;10.15;;
85054;SDS011;75391;48.300;16.352;2024-03-06T00:28:39;25.38;;;10.55;;
85054;SDS011;75391;48.300;16.352;2024-03-06T00:31:05;23.45;;;9.88;;
85054;SDS011;75391;48.300;16.352;2024-03-06T00:33:31;23.95;;;10.20;;
85054;SDS011;75391;48.300;16.352;2024-03-06T00:35:56;24.05;;;10.07;;
85054;SDS011;75391;48.300;16.352;2024-03-06T00:38:22;21.40;;;9.82;;
85054;SDS011;75391;48.300;16.352;2024-03-06T00:40:47;23.83;;;9.95;;
85054;SDS011;75391;48.300;16.352;2024-03-06T00:43:13;26.33;;;10.40;;
85054;SDS011;75391;48.300;16.352;2024-03-06T00:45:38;20.73;;;9.68;;
85054;SDS011;75391;48.300;16.352;2024-03-06T00:48:04;22.30;;;9.95;;
85054;SDS011;75391;48.300;16.352;2024-03-06T00:50:30;19.67;;;9.23;;
85054;SDS011;75391;48.300;16.352;2024-03-06T00:52:55;22.95;;;10.35;;
85054;SDS011;75391;48.300;16.352;2024-03-06T00:55:21;23.13;;;9.80;;
85054;SDS011;75391;48.300;16.352;2024-03-06T00:57:46;22.10;;;9.65;;
85054;SDS011;75391;48.300;16.352;2024-03-06T01:00:12;21.90;;;10.73;;
85054;SDS011;75391;48.300;16.352;2024-03-06T01:02:38;21.95;;;9.40;;
85054;SDS011;75391;48.300;16.352;2024-03-06T01:05:04;22.75;;;10.30;;
85054;SDS011;75391;48.300;16.352;2024-03-06T01:07:30;23.52;;;10.38;;
85054;SDS011;75391;48.300;16.352;2024-03-06T01:09:56;24.50;;;11.50;;
85054;SDS011;75391;48.300;16.352;2024-03-06T01:12:25;23.65;;;9.98;;
85054;SDS011;75391;48.300;16.352;2024-03-06T01:14:50;22.67;;;10.43;;
85054;SDS011;75391;48.300;16.352;2024-03-06T01:17:16;21.67;;;9.65;;
85054;SDS011;75391;48.300;16.352;2024-03-06T01:19:42;21.70;;;9.85;;
85054;SDS011;75391;48.300;16.352;2024-03-06T01:22:07;23.13;;;9.82;;
85054;SDS011;75391;48.300;16.352;2024-03-06T01:24:33;21.77;;;9.80;;
85054;SDS011;75391;48.300;16.352;2024-03-06T01:26:58;20.35;;;8.98;;
85054;SDS011;75391;48.300;16.352;2024-03-06T01:29:24;22.52;;;10.10;;
85054;SDS011;75391;48.300;16.352;2024-03-06T01:31:49;22.33;;;9.65;;
85054;SDS011;75391;48.300;16.352;2024-03-06T01:34:15;24.15;;;10.10;;
85054;SDS011;75391;48.300;16.352;2024-03-06T01:36:40;24.65;;;10.82;;
85054;SDS011;75391;48.300;16.352;2024-03-06T01:39:06;22.00;;;9.90;;
85054;SDS011;75391;48.300;16.352;2024-03-06T01:41:31;23.02;;;10.02;;
85054;SDS011;75391;48.300;16.352;2024-03-06T01:43:57;25.75;;;10.98;;
85054;SDS011;75391;48.300;16.352;2024-03-06T01:46:22;21.75;;;9.95;;
85054;SDS011;75391;48.300;16.352;2024-03-06T01:48:48;25.52;;;10.85;;
85054;SDS011;75391;48.300;16.352;2024-03-06T01:51:14;26.13;;;11.27;;
85054;SDS011;75391;48.300;16.352;2024-03-06T01:53:39;24.45;;;10.57;;
85054;SDS011;75391;48.300;16.352;2024-03-06T01:56:05;21.63;;;9.65;;
85054;SDS011;75391;48.300;16.352;2024-03-06T01:58:32;24.63;;;10.68;;
85054;SDS011;75391;48.300;16.352;2024-03-06T02:00:58;24.20;;;10.13;;
85054;SDS011;75391;48.300;16.352;2024-03-06T02:03:24;22.73;;;9.90;;
85054;SDS011;75391;48.300;16.352;2024-03-06T02:05:51;24.15;;;10.50;;
85054;SDS011;75391;48.300;16.352;2024-03-06T02:08:18;23.83;;;10.00;;
85054;SDS011;75391;48.300;16.352;2024-03-06T02:10:44;25.02;;;10.50;;
85054;SDS011;75391;48.300;16.352;2024-03-06T02:13:10;23.67;;;10.57;;
85054;SDS011;75391;48.300;16.352;2024-03-06T02:15:36;26.98;;;11.30;;
85054;SDS011;75391;48.300;16.352;2024-03-06T02:18:05;23.98;;;9.77;;
85054;SDS011;75391;48.300;16.352;2024-03-06T02:20:31;26.33;;;11.60;;
85054;SDS011;75391;48.300;16.352;2024-03-06T02:22:56;26.67;;;11.88;;
85054;SDS011;75391;48.300;16.352;2024-03-06T02:25:22;27.65;;;11.52;;
85054;SDS011;75391;48.300;16.352;2024-03-06T02:27:48;27.02;;;11.45;;
85054;SDS011;75391;48.300;16.352;2024-03-06T02:30:13;25.83;;;10.93;;
85054;SDS011;75391;48.300;16.352;2024-03-06T02:32:39;24.50;;;10.88;;
85054;SDS011;75391;48.300;16.352;2024-03-06T02:35:05;27.95;;;11.10;;
85054;SDS011;75391;48.300;16.352;2024-03-06T02:37:30;24.45;;;10.77;;
85054;SDS011;75391;48.300;16.352;2024-03-06T02:39:56;25.35;;;11.60;;
85054;SDS011;75391;48.300;16.352;2024-03-06T02:42:21;26.48;;;11.15;;
85054;SDS011;75391;48.300;16.352;2024-03-06T02:44:47;24.75;;;11.02;;
85054;SDS011;75391;48.300;16.352;2024-03-06T02:47:12;29.38;;;11.63;;
85054;SDS011;75391;48.300;16.352;2024-03-06T02:49:38;29.20;;;11.98;;
85054;SDS011;75391;48.300;16.352;2024-03-06T02:52:03;32.10;;;11.77;;
85054;SDS011;75391;48.300;16.352;2024-03-06T02:54:29;27.27;;;11.88;;
85054;SDS011;75391;48.300;16.352;2024-03-06T02:56:54;27.85;;;11.80;;
85054;SDS011;75391;48.300;16.352;2024-03-06T02:59:20;29.67;;;12.15;;
85054;SDS011;75391;48.300;16.352;2024-03-06T03:01:45;29.98;;;12.07;;
85054;SDS011;75391;48.300;16.352;2024-03-06T03:04:11;28.42;;;11.35;;
85054;SDS011;75391;48.300;16.352;2024-03-06T03:06:36;31.25;;;12.27;;
85054;SDS011;75391;48.300;16.352;2024-03-06T03:09:02;32.10;;;12.43;;
85054;SDS011;75391;48.300;16.352;2024-03-06T03:11:27;32.95;;;12.98;;
85054;SDS011;75391;48.300;16.352;2024-03-06T03:13:53;29.25;;;12.45;;
85054;SDS011;75391;48.300;16.352;2024-03-06T03:16:18;35.15;;;13.00;;
85054;SDS011;75391;48.300;16.352;2024-03-06T03:18:44;29.27;;;11.98;;
85054;SDS011;75391;48.300;16.352;2024-03-06T03:21:10;29.63;;;12.05;;
85054;SDS011;75391;48.300;16.352;2024-03-06T03:23:36;31.75;;;13.55;;
85054;SDS011;75391;48.300;16.352;2024-03-06T03:26:02;32.47;;;12.52;;
85054;SDS011;75391;48.300;16.352;2024-03-06T03:28:27;33.28;;;13.75;;
85054;SDS011;75391;48.300;16.352;2024-03-06T03:30:53;32.90;;;12.85;;
85054;SDS011;75391;48.300;16.352;2024-03-06T03:33:18;33.38;;;12.80;;
85054;SDS011;75391;48.300;16.352;2024-03-06T03:35:43;34.88;;;13.73;;
85054;SDS011;75391;48.300;16.352;2024-03-06T03:38:09;35.30;;;13.75;;
85054;SDS011;75391;48.300;16.352;2024-03-06T03:40:34;34.17;;;12.95;;
85054;SDS011;75391;48.300;16.352;2024-03-06T03:43:00;33.25;;;12.88;;
85054;SDS011;75391;48.300;16.352;2024-03-06T03:45:25;30.88;;;13.15;;
85054;SDS011;75391;48.300;16.352;2024-03-06T03:47:51;33.17;;;13.75;;
85054;SDS011;75391;48.300;16.352;2024-03-06T03:50:17;35.95;;;13.55;;
85054;SDS011;75391;48.300;16.352;2024-03-06T03:52:42;36.38;;;13.70;;
85054;SDS011;75391;48.300;16.352;2024-03-06T03:55:08;32.50;;;13.15;;
85054;SDS011;75391;48.300;16.352;2024-03-06T03:57:33;32.95;;;13.25;;
85054;SDS011;75391;48.300;16.352;2024-03-06T03:59:59;36.42;;;14.02;;
85054;SDS011;75391;48.300;16.352;2024-03-06T04:02:24;33.90;;;12.95;;
85054;SDS011;75391;48.300;16.352;2024-03-06T04:04:50;34.58;;;13.93;;
85054;SDS011;75391;48.300;16.352;2024-03-06T04:07:16;31.30;;;12.38;;
85054;SDS011;75391;48.300;16.352;2024-03-06T04:09:41;34.85;;;13.10;;
85054;SDS011;75391;48.300;16.352;2024-03-06T04:12:07;33.13;;;12.80;;
85054;SDS011;75391;48.300;16.352;2024-03-06T04:14:32;32.97;;;13.60;;
85054;SDS011;75391;48.300;16.352;2024-03-06T04:16:58;33.78;;;13.73;;
85054;SDS011;75391;48.300;16.352;2024-03-06T04:19:23;33.97;;;13.38;;
85054;SDS011;75391;48.300;16.352;2024-03-06T04:21:50;33.97;;;12.63;;
85054;SDS011;75391;48.300;16.352;2024-03-06T04:24:15;33.97;;;13.45;;
85054;SDS011;75391;48.300;16.352;2024-03-06T04:26:41;34.72;;;13.38;;
85054;SDS011;75391;48.300;16.352;2024-03-06T04:29:06;36.10;;;13.82;;
85054;SDS011;75391;48.300;16.352;2024-03-06T04:31:32;31.77;;;12.25;;
85054;SDS011;75391;48.300;16.352;2024-03-06T04:33:57;34.63;;;13.55;;
85054;SDS011;75391;48.300;16.352;2024-03-06T04:36:23;33.55;;;12.23;;
85054;SDS011;75391;48.300;16.352;2024-03-06T04:38:48;34.72;;;13.15;;
85054;SDS011;75391;48.300;16.352;2024-03-06T04:41:14;33.35;;;12.73;;
85054;SDS011;75391;48.300;16.352;2024-03-06T04:43:39;32.85;;;12.82;;
85054;SDS011;75391;48.300;16.352;2024-03-06T04:46:05;30.92;;;12.82;;
85054;SDS011;75391;48.300;16.352;2024-03-06T04:48:30;33.35;;;12.70;;
85054;SDS011;75391;48.300;16.352;2024-03-06T04:50:56;34.40;;;13.32;;
85054;SDS011;75391;48.300;16.352;2024-03-06T04:53:21;31.40;;;12.30;;
85054;SDS011;75391;48.300;16.352;2024-03-06T04:55:47;30.23;;;12.80;;
85054;SDS011;75391;48.300;16.352;2024-03-06T04:58:12;34.47;;;13.25;;
85054;SDS011;75391;48.300;16.352;2024-03-06T05:00:38;34.10;;;12.45;;
85054;SDS011;75391;48.300;16.352;2024-03-06T05:03:04;32.88;;;12.77;;
85054;SDS011;75391;48.300;16.352;2024-03-06T05:05:29;33.25;;;12.80;;
85054;SDS011;75391;48.300;16.352;2024-03-06T05:07:55;31.85;;;11.75;;
85054;SDS011;75391;48.300;16.352;2024-03-06T05:10:20;32.88;;;12.98;;
85054;SDS011;75391;48.300;16.352;2024-03-06T05:12:46;37.70;;;14.38;;
85054;SDS011;75391;48.300;16.352;2024-03-06T05:15:12;36.25;;;13.88;;
85054;SDS011;75391;48.300;16.352;2024-03-06T05:17:37;31.83;;;12.75;;
85054;SDS011;75391;48.300;16.352;2024-03-06T05:20:03;34.45;;;13.73;;
85054;SDS011;75391;48.300;16.352;2024-03-06T05:22:29;34.30;;;13.07;;
85054;SDS011;75391;48.300;16.352;2024-03-06T05:24:55;30.45;;;11.88;;
85054;SDS011;75391;48.300;16.352;2024-03-06T05:27:20;27.75;;;11.52;;
85054;SDS011;75391;48.300;16.352;2024-03-06T05:29:46;27.45;;;11.13;;
85054;SDS011;75391;48.300;16.352;2024-03-06T05:32:12;27.30;;;11.20;;
85054;SDS011;75391;48.300;16.352;2024-03-06T05:34:38;25.90;;;10.82;;
85054;SDS011;75391;48.300;16.352;2024-03-06T05:37:03;27.27;;;10.70;;
85054;SDS011;75391;48.300;16.352;2024-03-06T05:39:29;28.10;;;11.25;;
85054;SDS011;75391;48.300;16.352;2024-03-06T05:41:55;27.50;;;10.85;;
85054;SDS011;75391;48.300;16.352;2024-03-06T05:44:25;28.40;;;11.65;;
85054;SDS011;75391;48.300;16.352;2024-03-06T05:46:50;28.20;;;10.82;;
85054;SDS011;75391;48.300;16.352;2024-03-06T05:49:16;27.90;;;11.50;;
85054;SDS011;75391;48.300;16.352;2024-03-06T05:51:41;28.38;;;10.52;;
85054;SDS011;75391;48.300;16.352;2024-03-06T05:54:07;28.88;;;11.23;;
85054;SDS011;75391;48.300;16.352;2024-03-06T05:56:32;30.30;;;11.77;;
85054;SDS011;75391;48.300;16.352;2024-03-06T05:58:58;28.27;;;10.45;;
85054;SDS011;75391;48.300;16.352;2024-03-06T06:01:23;26.90;;;10.43;;
85054;SDS011;75391;48.300;16.352;2024-03-06T06:03:49;25.60;;;10.43;;
85054;SDS011;75391;48.300;16.352;2024-03-06T06:06:15;28.98;;;10.68;;
85054;SDS011;75391;48.300;16.352;2024-03-06T06:08:41;25.52;;;10.55;;
85054;SDS011;75391;48.300;16.352;2024-03-06T06:11:06;24.25;;;9.82;;
85054;SDS011;75391;48.300;16.352;2024-03-06T06:13:32;27.15;;;10.82;;
85054;SDS011;75391;48.300;16.352;2024-03-06T06:15:58;26.88;;;9.98;;
85054;SDS011;75391;48.300;16.352;2024-03-06T06:18:23;25.70;;;10.75;;
85054;SDS011;75391;48.300;16.352;2024-03-06T06:20:48;29.38;;;10.95;;
85054;SDS011;75391;48.300;16.352;2024-03-06T06:23:14;24.85;;;9.82;;
85054;SDS011;75391;48.300;16.352;2024-03-06T06:25:39;28.02;;;10.82;;
85054;SDS011;75391;48.300;16.352;2024-03-06T06:28:05;26.75;;;10.15;;
85054;SDS011;75391;48.300;16.352;2024-03-06T06:30:32;24.67;;;9.70;;
85054;SDS011;75391;48.300;16.352;2024-03-06T06:32:57;22.73;;;9.23;;
85054;SDS011;75391;48.300;16.352;2024-03-06T06:35:23;26.90;;;11.05;;
85054;SDS011;75391;48.300;16.352;2024-03-06T06:37:49;25.23;;;9.30;;
85054;SDS011;75391;48.300;16.352;2024-03-06T06:40:14;20.85;;;8.75;;
85054;SDS011;75391;48.300;16.352;2024-03-06T06:42:47;23.77;;;9.95;;
85054;SDS011;75391;48.300;16.352;2024-03-06T06:45:14;23.25;;;8.68;;
85054;SDS011;75391;48.300;16.352;2024-03-06T06:47:39;23.15;;;8.65;;
85054;SDS011;75391;48.300;16.352;2024-03-06T06:50:05;22.88;;;9.77;;
85054;SDS011;75391;48.300;16.352;2024-03-06T06:52:31;25.02;;;9.32;;
85054;SDS011;75391;48.300;16.352;2024-03-06T06:54:56;23.20;;;9.63;;
85054;SDS011;75391;48.300;16.352;2024-03-06T06:57:22;25.02;;;9.43;;
85054;SDS011;75391;48.300;16.352;2024-03-06T06:59:47;24.88;;;9.50;;
85054;SDS011;75391;48.300;16.352;2024-03-06T07:02:13;26.00;;;9.80;;
85054;SDS011;75391;48.300;16.352;2024-03-06T07:04:38;25.80;;;9.82;;
85054;SDS011;75391;48.300;16.352;2024-03-06T07:07:04;25.48;;;10.48;;
85054;SDS011;75391;48.300;16.352;2024-03-06T07:09:29;26.95;;;10.90;;
85054;SDS011;75391;48.300;16.352;2024-03-06T07:11:55;25.10;;;10.60;;
85054;SDS011;75391;48.300;16.352;2024-03-06T07:14:21;25.55;;;10.32;;
85054;SDS011;75391;48.300;16.352;2024-03-06T07:16:46;24.80;;;9.93;;
85054;SDS011;75391;48.300;16.352;2024-03-06T07:19:12;25.13;;;10.20;;
85054;SDS011;75391;48.300;16.352;2024-03-06T07:21:37;28.02;;;11.45;;
85054;SDS011;75391;48.300;16.352;2024-03-06T07:24:03;27.50;;;11.23;;
85054;SDS011;75391;48.300;16.352;2024-03-06T07:26:31;31.30;;;11.57;;
85054;SDS011;75391;48.300;16.352;2024-03-06T07:28:57;27.63;;;10.32;;
85054;SDS011;75391;48.300;16.352;2024-03-06T07:31:23;28.00;;;11.13;;
85054;SDS011;75391;48.300;16.352;2024-03-06T07:33:49;25.50;;;10.45;;
85054;SDS011;75391;48.300;16.352;2024-03-06T07:36:14;26.25;;;10.82;;
85054;SDS011;75391;48.300;16.352;2024-03-06T07:38:40;28.83;;;11.25;;
85054;SDS011;75391;48.300;16.352;2024-03-06T07:41:05;26.15;;;10.38;;
85054;SDS011;75391;48.300;16.352;2024-03-06T07:43:31;26.38;;;10.45;;
85054;SDS011;75391;48.300;16.352;2024-03-06T07:45:56;25.85;;;10.65;;
85054;SDS011;75391;48.300;16.352;2024-03-06T07:48:22;24.23;;;10.32;;
85054;SDS011;75391;48.300;16.352;2024-03-06T07:50:47;26.70;;;10.85;;
85054;SDS011;75391;48.300;16.352;2024-03-06T07:53:13;25.88;;;10.55;;
85054;SDS011;75391;48.300;16.352;2024-03-06T07:55:38;26.60;;;10.82;;
85054;SDS011;75391;48.300;16.352;2024-03-06T07:58:04;29.90;;;11.48;;
85054;SDS011;75391;48.300;16.352;2024-03-06T08:00:30;27.95;;;11.30;;
85054;SDS011;75391;48.300;16.352;2024-03-06T08:02:56;29.67;;;11.50;;
85054;SDS011;75391;48.300;16.352;2024-03-06T08:05:21;26.05;;;10.65;;
85054;SDS011;75391;48.300;16.352;2024-03-06T08:07:47;25.27;;;10.45;;
85054;SDS011;75391;48.300;16.352;2024-03-06T08:10:12;30.50;;;11.10;;
85054;SDS011;75391;48.300;16.352;2024-03-06T08:12:41;25.75;;;10.82;;
85054;SDS011;75391;48.300;16.352;2024-03-06T08:15:09;26.75;;;11.05;;
85054;SDS011;75391;48.300;16.352;2024-03-06T08:17:40;26.05;;;11.35;;
85054;SDS011;75391;48.300;16.352;2024-03-06T08:20:08;29.65;;;11.85;;
85054;SDS011;75391;48.300;16.352;2024-03-06T08:22:36;29.00;;;10.93;;
85054;SDS011;75391;48.300;16.352;2024-03-06T08:25:04;25.13;;;10.85;;
85054;SDS011;75391;48.300;16.352;2024-03-06T08:27:33;29.02;;;11.73;;
85054;SDS011;75391;48.300;16.352;2024-03-06T08:30:03;28.25;;;11.23;;
85054;SDS011;75391;48.300;16.352;2024-03-06T08:32:30;28.52;;;11.75;;
85054;SDS011;75391;48.300;16.352;2024-03-06T08:34:56;34.75;;;13.05;;
85054;SDS011;75391;48.300;16.352;2024-03-06T08:37:22;28.70;;;11.82;;
85054;SDS011;75391;48.300;16.352;2024-03-06T08:39:47;30.95;;;12.25;;
85054;SDS011;75391;48.300;16.352;2024-03-06T08:42:13;29.33;;;12.10;;
85054;SDS011;75391;48.300;16.352;2024-03-06T08:44:39;29.27;;;12.68;;
85054;SDS011;75391;48.300;16.352;2024-03-06T08:47:04;31.00;;;11.82;;
85054;SDS011;75391;48.300;16.352;2024-03-06T08:49:30;30.85;;;12.20;;
85054;SDS011;75391;48.300;16.352;2024-03-06T08:51:55;28.70;;;12.25;;
85054;SDS011;75391;48.300;16.352;2024-03-06T08:54:21;27.33;;;12.07;;
85054;SDS011;75391;48.300;16.352;2024-03-06T08:56:46;28.60;;;11.45;;
85054;SDS011;75391;48.300;16.352;2024-03-06T08:59:12;29.92;;;11.57;;
85054;SDS011;75391;48.300;16.352;2024-03-06T09:01:37;27.33;;;11.50;;
85054;SDS011;75391;48.300;16.352;2024-03-06T09:04:03;29.13;;;12.25;;
85054;SDS011;75391;48.300;16.352;2024-03-06T09:06:28;28.77;;;11.88;;
85054;SDS011;75391;48.300;16.352;2024-03-06T09:08:54;30.65;;;12.65;;
85054;SDS011;75391;48.300;16.352;2024-03-06T09:11:19;32.22;;;12.63;;
85054;SDS011;75391;48.300;16.352;2024-03-06T09:13:45;28.20;;;12.10;;
85054;SDS011;75391;48.300;16.352;2024-03-06T09:16:10;30.92;;;12.93;;
85054;SDS011;75391;48.300;16.352;2024-03-06T09:18:36;27.77;;;12.05;;
85054;SDS011;75391;48.300;16.352;2024-03-06T09:21:01;27.67;;;11.50;;
85054;SDS011;75391;48.300;16.352;2024-03-06T09:23:27;28.27;;;12.25;;
85054;SDS011;75391;48.300;16.352;2024-03-06T09:25:52;32.60;;;12.98;;
85054;SDS011;75391;48.300;16.352;2024-03-06T09:28:18;27.60;;;12.07;;
85054;SDS011;75391;48.300;16.352;2024-03-06T09:30:43;32.08;;;13.00;;
85054;SDS011;75391;48.300;16.352;2024-03-06T09:33:09;28.80;;;12.10;;
85054;SDS011;75391;48.300;16.352;2024-03-06T09:35:34;28.05;;;11.55;;
85054;SDS011;75391;48.300;16.352;2024-03-06T09:38:00;26.70;;;11.73;;
85054;SDS011;75391;48.300;16.352;2024-03-06T09:40:25;26.35;;;11.43;;
85054;SDS011;75391;48.300;16.352;2024-03-06T09:42:52;26.52;;;11.43;;
85054;SDS011;75391;48.300;16.352;2024-03-06T09:45:17;25.48;;;10.70;;
85054;SDS011;75391;48.300;16.352;2024-03-06T09:47:43;23.48;;;10.07;;
85054;SDS011;75391;48.300;16.352;2024-03-06T09:50:10;22.35;;;10.38;;
85054;SDS011;75391;48.300;16.352;2024-03-06T09:52:37;20.83;;;9.35;;
85054;SDS011;75391;48.300;16.352;2024-03-06T09:55:06;21.58;;;9.10;;
85054;SDS011;75391;48.300;16.352;2024-03-06T09:57:32;24.88;;;9.70;;
85054;SDS011;75391;48.300;16.352;2024-03-06T09:59:58;23.02;;;9.88;;
85054;SDS011;75391;48.300;16.352;2024-03-06T10:02:39;23.92;;;9.60;;
85054;SDS011;75391;48.300;16.352;2024-03-06T10:05:22;23.20;;;9.95;;
85054;SDS011;75391;48.300;16.352;2024-03-06T10:07:51;23.63;;;10.18;;
85054;SDS011;75391;48.300;16.352;2024-03-06T10:10:16;23.27;;;9.40;;
85054;SDS011;75391;48.300;16.352;2024-03-06T10:12:42;20.80;;;9.00;;
85054;SDS011;75391;48.300;16.352;2024-03-06T10:15:09;20.17;;;8.43;;
85054;SDS011;75391;48.300;16.352;2024-03-06T10:17:35;21.48;;;9.52;;
85054;SDS011;75391;48.300;16.352;2024-03-06T10:20:01;21.10;;;9.38;;
85054;SDS011;75391;48.300;16.352;2024-03-06T10:22:26;21.48;;;9.20;;
85054;SDS011;75391;48.300;16.352;2024-03-06T10:24:55;21.60;;;8.95;;
85054;SDS011;75391;48.300;16.352;2024-03-06T10:27:22;18.13;;;8.50;;
85054;SDS011;75391;48.300;16.352;2024-03-06T10:30:00;21.63;;;8.98;;
85054;SDS011;75391;48.300;16.352;2024-03-06T10:32:29;19.33;;;8.23;;
85054;SDS011;75391;48.300;16.352;2024-03-06T10:34:55;20.55;;;9.32;;
85054;SDS011;75391;48.300;16.352;2024-03-06T10:37:21;21.65;;;9.52;;
85054;SDS011;75391;48.300;16.352;2024-03-06T10:39:49;22.35;;;9.25;;
85054;SDS011;75391;48.300;16.352;2024-03-06T10:42:17;17.17;;;7.95;;
85054;SDS011;75391;48.300;16.352;2024-03-06T10:44:48;20.45;;;9.00;;
85054;SDS011;75391;48.300;16.352;2024-03-06T10:47:20;20.40;;;9.20;;
85054;SDS011;75391;48.300;16.352;2024-03-06T10:49:47;19.48;;;8.38;;
85054;SDS011;75391;48.300;16.352;2024-03-06T10:52:13;20.70;;;8.38;;
85054;SDS011;75391;48.300;16.352;2024-03-06T10:54:40;17.55;;;8.13;;
85054;SDS011;75391;48.300;16.352;2024-03-06T10:57:06;20.02;;;8.00;;
85054;SDS011;75391;48.300;16.352;2024-03-06T10:59:33;19.52;;;8.27;;
85054;SDS011;75391;48.300;16.352;2024-03-06T11:02:00;21.20;;;8.85;;
85054;SDS011;75391;48.300;16.352;2024-03-06T11:04:26;18.33;;;8.20;;
85054;SDS011;75391;48.300;16.352;2024-03-06T11:06:52;18.85;;;8.30;;
85054;SDS011;75391;48.300;16.352;2024-03-06T11:09:18;17.33;;;7.93;;
85054;SDS011;75391;48.300;16.352;2024-03-06T11:11:50;20.90;;;8.63;;
85054;SDS011;75391;48.300;16.352;2024-03-06T11:14:17;20.60;;;7.95;;
85054;SDS011;75391;48.300;16.352;2024-03-06T11:19:27;20.92;;;9.50;;
85054;SDS011;75391;48.300;16.352;2024-03-06T11:21:52;21.63;;;9.77;;
85054;SDS011;75391;48.300;16.352;2024-03-06T11:24:21;20.98;;;9.23;;
85054;SDS011;75391;48.300;16.352;2024-03-06T11:29:17;22.05;;;9.52;;
85054;SDS011;75391;48.300;16.352;2024-03-06T11:32:00;22.10;;;9.70;;
85054;SDS011;75391;48.300;16.352;2024-03-06T11:34:28;21.52;;;9.80;;
85054;SDS011;75391;48.300;16.352;2024-03-06T11:36:56;24.27;;;10.35;;
85054;SDS011;75391;48.300;16.352;2024-03-06T11:39:21;22.58;;;10.02;;
85054;SDS011;75391;48.300;16.352;2024-03-06T11:41:47;21.95;;;9.77;;
85054;SDS011;75391;48.300;16.352;2024-03-06T11:44:18;23.77;;;10.82;;
85054;SDS011;75391;48.300;16.352;2024-03-06T11:46:45;22.83;;;10.07;;
85054;SDS011;75391;48.300;16.352;2024-03-06T11:49:19;25.00;;;10.73;;
85054;SDS011;75391;48.300;16.352;2024-03-06T11:51:45;23.52;;;10.38;;
85054;SDS011;75391;48.300;16.352;2024-03-06T11:54:10;23.13;;;10.25;;
85054;SDS011;75391;48.300;16.352;2024-03-06T11:56:36;23.35;;;10.20;;
85054;SDS011;75391;48.300;16.352;2024-03-06T11:59:04;23.10;;;10.07;;
85054;SDS011;75391;48.300;16.352;2024-03-06T12:01:30;23.83;;;10.30;;
85054;SDS011;75391;48.300;16.352;2024-03-06T12:03:55;23.73;;;10.32;;
85054;SDS011;75391;48.300;16.352;2024-03-06T12:06:21;23.75;;;10.27;;
85054;SDS011;75391;48.300;16.352;2024-03-06T12:08:47;21.80;;;9.90;;
85054;SDS011;75391;48.300;16.352;2024-03-06T12:11:12;20.88;;;9.80;;
85054;SDS011;75391;48.300;16.352;2024-03-06T12:13:37;22.27;;;9.77;;
85054;SDS011;75391;48.300;16.352;2024-03-06T12:16:03;23.63;;;9.90;;
85054;SDS011;75391;48.300;16.352;2024-03-06T12:18:33;21.75;;;9.85;;
85054;SDS011;75391;48.300;16.352;2024-03-06T12:21:02;23.13;;;10.77;;
85054;SDS011;75391;48.300;16.352;2024-03-06T12:23:29;24.40;;;10.93;;
85054;SDS011;75391;48.300;16.352;2024-03-06T12:26:08;23.48;;;9.77;;
85054;SDS011;75391;48.300;16.352;2024-03-06T12:28:35;21.27;;;9.40;;
85054;SDS011;75391;48.300;16.352;2024-03-06T12:31:02;22.60;;;10.13;;
85054;SDS011;75391;48.300;16.352;2024-03-06T12:33:29;22.85;;;9.77;;
85054;SDS011;75391;48.300;16.352;2024-03-06T12:36:07;22.05;;;10.10;;
85054;SDS011;75391;48.300;16.352;2024-03-06T12:38:33;21.98;;;10.05;;
85054;SDS011;75391;48.300;16.352;2024-03-06T12:40:59;19.48;;;9.55;;
85054;SDS011;75391;48.300;16.352;2024-03-06T12:43:25;23.30;;;10.00;;
85054;SDS011;75391;48.300;16.352;2024-03-06T12:45:51;23.00;;;10.43;;
85054;SDS011;75391;48.300;16.352;2024-03-06T12:48:17;20.55;;;9.43;;
85054;SDS011;75391;48.300;16.352;2024-03-06T12:50:42;22.17;;;9.95;;
85054;SDS011;75391;48.300;16.352;2024-03-06T12:53:08;22.13;;;10.02;;
85054;SDS011;75391;48.300;16.352;2024-03-06T12:55:33;22.05;;;10.55;;
85054;SDS011;75391;48.300;16.352;2024-03-06T12:57:59;20.30;;;8.63;;
85054;SDS011;75391;48.300;16.352;2024-03-06T13:00:24;20.90;;;9.40;;
85054;SDS011;75391;48.300;16.352;2024-03-06T13:02:50;21.73;;;9.15;;
85054;SDS011;75391;48.300;16.352;2024-03-06T13:05:16;21.02;;;9.75;;
85054;SDS011;75391;48.300;16.352;2024-03-06T13:07:42;23.80;;;9.60;;
85054;SDS011;75391;48.300;16.352;2024-03-06T13:10:08;18.77;;;8.25;;
85054;SDS011;75391;48.300;16.352;2024-03-06T13:12:35;22.30;;;9.30;;
85054;SDS011;75391;48.300;16.352;2024-03-06T13:15:00;21.70;;;9.65;;
85054;SDS011;75391;48.300;16.352;2024-03-06T13:17:26;21.25;;;9.35;;
85054;SDS011;75391;48.300;16.352;2024-03-06T13:19:51;22.25;;;9.43;;
85054;SDS011;75391;48.300;16.352;2024-03-06T13:22:17;20.55;;;9.13;;
85054;SDS011;75391;48.300;16.352;2024-03-06T13:24:42;23.17;;;10.32;;
85054;SDS011;75391;48.300;16.352;2024-03-06T13:27:08;22.70;;;10.30;;
85054;SDS011;75391;48.300;16.352;2024-03-06T13:29:33;22.85;;;9.70;;
85054;SDS011;75391;48.300;16.352;2024-03-06T13:31:59;21.80;;;9.80;;
85054;SDS011;75391;48.300;16.352;2024-03-06T13:34:24;23.13;;;10.13;;
85054;SDS011;75391;48.300;16.352;2024-03-06T13:36:50;24.05;;;9.63;;
85054;SDS011;75391;48.300;16.352;2024-03-06T13:39:15;21.17;;;9.18;;
85054;SDS011;75391;48.300;16.352;2024-03-06T13:41:41;22.02;;;9.45;;
85054;SDS011;75391;48.300;16.352;2024-03-06T13:44:06;21.17;;;9.38;;
85054;SDS011;75391;48.300;16.352;2024-03-06T13:46:32;21.67;;;9.73;;
85054;SDS011;75391;48.300;16.352;2024-03-06T13:48:57;22.70;;;9.75;;
85054;SDS011;75391;48.300;16.352;2024-03-06T13:51:23;21.75;;;9.32;;
85054;SDS011;75391;48.300;16.352;2024-03-06T13:53:48;21.92;;;9.45;;
85054;SDS011;75391;48.300;16.352;2024-03-06T13:56:14;19.67;;;9.25;;
85054;SDS011;75391;48.300;16.352;2024-03-06T13:58:39;21.35;;;9.55;;
85054;SDS011;75391;48.300;16.352;2024-03-06T14:01:05;23.02;;;9.55;;
85054;SDS011;75391;48.300;16.352;2024-03-06T14:03:30;20.67;;;8.68;;
85054;SDS011;75391;48.300;16.352;2024-03-06T14:05:56;18.02;;;8.40;;
85054;SDS011;75391;48.300;16.352;2024-03-06T14:08:21;21.00;;;8.93;;
85054;SDS011;75391;48.300;16.352;2024-03-06T14:10:47;25.35;;;8.13;;
85054;SDS011;75391;48.300;16.352;2024-03-06T14:13:12;21.15;;;9.10;;